Time;durP1;ratioP1;P1;durP2;ratioP2;P2;SDS_P1;SDS_P2;PMS_P1;PMS_P2;Temp;Humidity;BMP_temperature;BMP_pressure;BME280_temperature;BME280_humidity;BME280_pressure;Samples;Min_cycle;Max_cycle;Signal;HPM_P1;HPM_P2
2022/04/22 00:00:07;;;;;;;13.27;7.17;;;6.40;1.00;;;;;;5113046;28;20198;-84
2022/04/22 00:02:34;;;;;;;10.83;7.33;;;6.30;1.00;;;;;;5125049;27;20185;-84
2022/04/22 00:05:02;;;;;;;10.80;7.17;;;6.30;1.00;;;;;;5133686;27;20659;-84
2022/04/22 00:07:30;;;;;;;9.60;6.80;;;6.30;1.00;;;;;;5133560;27;20190;-86
2022/04/22 00:09:57;;;;;;;13.23;7.30;;;6.30;1.00;;;;;;5133287;27;20247;-84
2022/04/22 00:12:24;;;;;;;10.87;7.57;;;6.30;1.00;;;;;;5133080;27;20702;-84
2022/04/22 00:14:51;;;;;;;10.43;7.03;;;6.30;1.00;;;;;;5133390;27;20247;-84
2022/04/22 00:17:19;;;;;;;8.73;6.57;;;6.30;1.00;;;;;;5133261;27;20555;-84
2022/04/22 00:19:46;;;;;;;9.13;6.63;;;6.30;1.00;;;;;;5133016;27;20215;-84
2022/04/22 00:22:13;;;;;;;12.27;6.90;;;6.30;1.00;;;;;;5133044;27;20226;-84
2022/04/22 00:24:41;;;;;;;8.87;6.87;;;6.40;1.00;;;;;;5132987;27;20662;-84
2022/04/22 00:27:08;;;;;;;12.00;6.43;;;6.50;1.00;;;;;;5132848;27;20190;-84
2022/04/22 00:29:35;;;;;;;14.57;6.23;;;6.50;1.00;;;;;;5133235;27;20222;-84
2022/04/22 00:32:02;;;;;;;9.60;6.00;;;6.60;1.00;;;;;;5132577;27;20179;-85
2022/04/22 00:34:29;;;;;;;9.73;6.23;;;6.70;1.00;;;;;;5133362;28;20189;-84
2022/04/22 00:36:56;;;;;;;8.90;6.27;;;6.70;1.00;;;;;;5133857;27;20255;-87
2022/04/22 00:39:24;;;;;;;9.40;6.47;;;6.80;1.00;;;;;;5132922;28;20191;-84
2022/04/22 00:41:52;;;;;;;9.07;6.83;;;6.80;1.00;;;;;;5133440;28;20190;-86
2022/04/22 00:44:19;;;;;;;8.17;6.20;;;6.80;1.00;;;;;;5115910;28;20186;-85
2022/04/22 00:46:46;;;;;;;8.43;6.10;;;6.80;1.00;;;;;;5112966;28;20264;-86
2022/04/22 00:49:13;;;;;;;7.43;5.97;;;6.80;1.00;;;;;;5112683;28;20199;-87
2022/04/22 00:51:40;;;;;;;9.07;6.13;;;6.80;1.00;;;;;;5116629;28;20213;-85
2022/04/22 00:54:08;;;;;;;8.93;6.57;;;6.90;1.00;;;;;;5130099;27;20654;-85
2022/04/22 00:56:35;;;;;;;10.33;6.23;;;6.90;1.00;;;;;;5136832;27;20191;-85
2022/04/22 00:59:03;;;;;;;11.10;6.40;;;6.90;1.00;;;;;;5137047;27;20198;-85
2022/04/22 01:01:31;;;;;;;9.20;6.40;;;6.80;1.00;;;;;;5137434;27;20275;-85
2022/04/22 01:12:12;;;;;;;10.50;5.90;;;6.80;1.00;;;;;;5136910;27;20174;-86
2022/04/22 01:14:41;;;;;;;9.13;6.10;;;6.90;1.00;;;;;;5136975;27;20199;-83
2022/04/22 01:17:08;;;;;;;10.07;6.10;;;6.90;1.00;;;;;;5136931;27;20213;-86
2022/04/22 01:19:35;;;;;;;7.20;5.20;;;6.90;1.00;;;;;;5136427;27;20192;-87
2022/04/22 01:22:05;;;;;;;10.13;6.03;;;6.90;1.00;;;;;;5136396;27;20196;-84
2022/04/22 01:24:32;;;;;;;8.30;5.73;;;7.00;1.00;;;;;;5136134;27;20273;-84
2022/04/22 01:26:59;;;;;;;8.60;5.43;;;7.00;1.00;;;;;;5136377;27;20185;-84
2022/04/22 01:29:26;;;;;;;8.50;5.70;;;7.00;99.90;;;;;;5136142;27;20230;-84
2022/04/22 01:31:53;;;;;;;8.10;5.40;;;7.00;99.90;;;;;;5136499;27;20215;-88
2022/04/22 01:34:20;;;;;;;8.10;5.50;;;7.00;99.90;;;;;;5136668;27;21060;-85
2022/04/22 01:36:47;;;;;;;7.77;5.33;;;7.00;99.90;;;;;;5136524;27;20195;-83
2022/04/22 01:39:15;;;;;;;9.00;5.03;;;7.00;99.90;;;;;;5136355;27;20666;-88
2022/04/22 01:41:42;;;;;;;7.57;5.00;;;6.90;99.90;;;;;;5136354;27;20192;-85
2022/04/22 01:44:09;;;;;;;6.73;5.27;;;6.90;82.50;;;;;;5136643;27;20204;-85
2022/04/22 01:46:36;;;;;;;9.23;5.63;;;6.80;15.60;;;;;;5136222;27;20246;-84
2022/04/22 01:49:03;;;;;;;8.93;5.33;;;6.80;1.00;;;;;;5136417;27;20667;-83
2022/04/22 01:51:30;;;;;;;7.70;5.17;;;6.70;1.00;;;;;;5136251;27;20214;-86
2022/04/22 01:53:57;;;;;;;7.47;5.63;;;6.70;1.00;;;;;;5136477;27;20543;-86
2022/04/22 01:56:26;;;;;;;8.23;5.53;;;6.60;1.00;;;;;;5136375;27;20255;-86
2022/04/22 01:58:53;;;;;;;7.77;5.53;;;6.60;1.00;;;;;;5135775;27;20189;-85
2022/04/22 02:01:20;;;;;;;8.23;5.77;;;6.60;25.70;;;;;;5135204;27;20247;-84
2022/04/22 02:03:47;;;;;;;8.17;5.47;;;6.60;57.10;;;;;;5135438;27;20233;-84
2022/04/22 02:06:14;;;;;;;8.73;5.40;;;6.60;73.10;;;;;;5135788;27;20194;-84
2022/04/22 02:08:42;;;;;;;8.47;5.57;;;6.50;87.70;;;;;;5135671;27;20194;-85
2022/04/22 02:11:09;;;;;;;8.97;5.37;;;6.50;93.80;;;;;;5135739;27;20211;-85
2022/04/22 02:13:37;;;;;;;12.97;6.27;;;6.50;94.80;;;;;;5136051;27;20235;-87
2022/04/22 02:16:05;;;;;;;9.40;5.60;;;6.50;97.90;;;;;;5135972;27;20226;-85
2022/04/22 02:18:36;;;;;;;13.53;5.93;;;6.60;97.50;;;;;;5135584;27;20191;-88
2022/04/22 02:21:04;;;;;;;10.90;5.33;;;6.50;99.90;;;;;;5136126;27;20547;-84
2022/04/22 02:23:32;;;;;;;8.60;5.33;;;6.50;99.90;;;;;;5135166;27;20664;-86
2022/04/22 02:25:59;;;;;;;7.97;5.17;;;6.50;99.90;;;;;;5135700;27;20243;-85
2022/04/22 02:28:34;;;;;;;8.47;4.87;;;6.60;99.90;;;;;;5136002;27;20299;-85
2022/04/22 02:31:05;;;;;;;7.80;5.27;;;6.60;99.90;;;;;;5135599;27;20199;-84
2022/04/22 02:33:33;;;;;;;6.30;4.30;;;6.60;99.90;;;;;;5135897;27;20302;-89
2022/04/22 02:36:01;;;;;;;7.20;4.50;;;6.70;99.90;;;;;;5136022;27;20202;-84
2022/04/22 02:38:28;;;;;;;8.00;4.67;;;6.80;99.90;;;;;;5135555;27;20191;-85
2022/04/22 02:46:27;;;;;;;10.97;5.33;;;7.10;93.60;;;;;;5135367;27;20679;-85
2022/04/22 02:48:57;;;;;;;11.07;4.80;;;7.20;1.00;;;;;;5135637;27;20220;-88
2022/04/22 02:51:24;;;;;;;9.53;6.43;;;7.30;1.00;;;;;;5135195;27;20218;-86
2022/04/22 02:53:51;;;;;;;8.63;5.60;;;7.40;1.00;;;;;;5135148;27;20727;-86
2022/04/22 02:56:19;;;;;;;7.57;5.50;;;7.50;1.00;;;;;;5135075;27;20534;-85
2022/04/22 02:58:46;;;;;;;11.23;5.57;;;7.60;1.00;;;;;;5135222;27;20273;-85
2022/04/22 03:01:14;;;;;;;8.97;5.37;;;7.60;1.00;;;;;;5134531;27;20221;-87
2022/04/22 03:03:43;;;;;;;10.03;6.10;;;7.70;1.00;;;;;;5134880;27;20198;-88
2022/04/22 03:06:10;;;;;;;8.50;5.23;;;7.80;1.00;;;;;;5134887;27;20191;-87
2022/04/22 03:08:37;;;;;;;10.67;6.03;;;7.80;1.00;;;;;;5134695;27;20231;-87
2022/04/22 03:11:04;;;;;;;10.47;6.10;;;7.90;1.00;;;;;;5134888;27;20220;-87
2022/04/22 03:13:31;;;;;;;9.90;6.20;;;7.90;1.00;;;;;;5134957;27;20219;-87
2022/04/22 03:15:59;;;;;;;8.70;6.17;;;7.90;1.00;;;;;;5135211;27;20192;-85
2022/04/22 03:18:27;;;;;;;8.13;5.90;;;8.00;1.00;;;;;;5134934;27;20198;-88
2022/04/22 03:20:56;;;;;;;7.90;5.90;;;8.00;1.00;;;;;;5134679;27;20197;-85
2022/04/22 03:23:23;;;;;;;8.57;6.17;;;8.00;1.00;;;;;;5133947;27;20652;-84
2022/04/22 03:25:50;;;;;;;10.37;6.00;;;8.00;1.00;;;;;;5134831;27;20268;-85
2022/04/22 03:28:17;;;;;;;9.57;6.13;;;8.10;1.00;;;;;;5134329;27;20283;-85
2022/04/22 03:30:44;;;;;;;10.07;6.47;;;8.10;1.00;;;;;;5134423;27;20196;-87
2022/04/22 03:33:11;;;;;;;10.03;6.37;;;8.10;1.00;;;;;;5134876;27;20199;-85
2022/04/22 03:35:38;;;;;;;10.73;5.80;;;8.10;1.00;;;;;;5135381;27;20201;-87
2022/04/22 03:38:07;;;;;;;10.03;6.03;;;8.20;1.00;;;;;;5135172;27;20206;-87
2022/04/22 03:40:34;;;;;;;12.70;6.70;;;8.20;1.00;;;;;;5135092;27;20193;-87
2022/04/22 03:43:01;;;;;;;10.20;6.10;;;8.20;1.00;;;;;;5135374;27;20240;-88
2022/04/22 03:45:28;;;;;;;9.37;5.90;;;8.20;1.00;;;;;;5134993;27;20199;-86
2022/04/22 03:47:58;;;;;;;9.10;6.70;;;8.30;1.00;;;;;;5134846;27;20721;-87
2022/04/22 03:50:25;;;;;;;10.07;6.40;;;8.30;1.00;;;;;;5134439;27;20188;-85
2022/04/22 03:52:52;;;;;;;10.03;6.03;;;8.30;1.00;;;;;;5133712;27;20700;-88
2022/04/22 03:55:21;;;;;;;8.93;6.17;;;8.30;1.00;;;;;;5135910;27;20246;-82
2022/04/22 04:00:33;;;;;;;12.63;6.87;;;8.40;1.00;;;;;;5134226;27;20191;-87
2022/04/22 04:03:01;;;;;;;10.53;6.80;;;8.40;1.00;;;;;;5134356;27;20187;-88
2022/04/22 04:05:28;;;;;;;10.70;7.07;;;8.50;1.00;;;;;;5133805;27;20622;-88
2022/04/22 04:07:55;;;;;;;9.33;6.80;;;8.50;1.00;;;;;;5133704;27;20192;-86
2022/04/22 04:16:01;;;;;;;10.47;7.60;;;8.60;1.00;;;;;;5133827;27;20182;-87
2022/04/22 04:18:30;;;;;;;10.23;6.93;;;8.60;1.00;;;;;;5134104;27;20266;-86
2022/04/22 04:23:42;;;;;;;12.27;6.80;;;8.60;1.00;;;;;;5132847;27;20192;-88
2022/04/22 04:26:12;;;;;;;11.80;7.00;;;8.60;1.00;;;;;;5133445;27;20197;-85
2022/04/22 04:28:40;;;;;;;12.10;7.30;;;8.60;1.00;;;;;;5132909;27;20693;-85
2022/04/22 04:31:07;;;;;;;12.03;6.70;;;8.60;1.00;;;;;;5133204;28;20220;-87
2022/04/22 04:33:36;;;;;;;10.83;7.23;;;8.60;1.00;;;;;;5133554;28;20199;-85
2022/04/22 04:36:04;;;;;;;11.07;6.60;;;8.60;1.00;;;;;;5133674;27;20188;-86
2022/04/22 04:38:32;;;;;;;10.07;6.40;;;8.70;1.00;;;;;;5133326;28;20197;-83
2022/04/22 04:40:59;;;;;;;11.53;6.40;;;8.70;1.00;;;;;;5133287;27;20193;-83
2022/04/22 04:43:27;;;;;;;9.93;6.43;;;8.70;1.00;;;;;;5132943;28;20638;-85
2022/04/22 04:45:54;;;;;;;11.20;6.73;;;8.70;1.00;;;;;;5132983;28;20546;-87
2022/04/22 04:48:21;;;;;;;10.07;7.13;;;8.70;1.00;;;;;;5133229;27;20197;-84
2022/04/22 04:50:51;;;;;;;12.07;7.27;;;8.80;1.00;;;;;;5133161;27;20230;-84
2022/04/22 04:53:19;;;;;;;11.93;7.63;;;8.90;1.00;;;;;;5132587;27;20221;-86
2022/04/22 04:55:47;;;;;;;13.87;7.97;;;8.90;1.00;;;;;;5133335;27;20200;-86
2022/04/22 04:58:14;;;;;;;12.47;8.00;;;9.00;1.00;;;;;;5133207;28;20199;-86
2022/04/22 05:00:44;;;;;;;10.77;7.50;;;9.10;1.00;;;;;;5132884;27;20196;-86
2022/04/22 05:03:11;;;;;;;14.63;7.33;;;9.10;1.00;;;;;;5133240;27;20605;-89
2022/04/22 05:05:38;;;;;;;11.80;7.13;;;9.10;1.00;;;;;;5133226;27;20250;-87
2022/04/22 05:08:23;;;;;;;10.37;7.30;;;9.10;1.00;;;;;;5154780;28;20198;-89
2022/04/22 05:10:55;;;;;;;8.63;6.30;;;9.20;1.00;;;;;;5155910;28;20198;-92
2022/04/22 05:13:32;;;;;;;10.60;7.67;;;9.30;1.00;;;;;;5156231;28;20166;-85
2022/04/22 05:16:02;;;;;;;13.67;7.93;;;9.30;1.00;;;;;;5156351;27;20213;-93
2022/04/22 05:18:33;;;;;;;10.00;7.20;;;9.40;1.00;;;;;;5156341;28;20194;-91
2022/04/22 05:21:04;;;;;;;8.80;6.47;;;9.50;1.00;;;;;;5155255;28;20220;-92
2022/04/22 05:23:35;;;;;;;9.17;6.67;;;9.50;1.00;;;;;;5155541;28;20215;-90
2022/04/22 05:26:04;;;;;;;11.43;7.40;;;9.60;1.00;;;;;;5155695;27;20198;-91
2022/04/22 05:28:33;;;;;;;10.40;6.50;;;9.70;1.00;;;;;;5155952;28;20228;-93
2022/04/22 05:33:50;;;;;;;;;;;10.00;99.90;;;;;;5156519;28;20258;-90
2022/04/22 05:36:19;;;;;;;;;;;10.20;99.90;;;;;;5157683;27;20461;-94
2022/04/22 05:38:46;;;;;;;;;;;10.30;99.90;;;;;;5160082;27;25060;-91
2022/04/22 05:41:18;;;;;;;;;;;10.50;99.90;;;;;;5159879;27;20475;-93
2022/04/22 05:43:46;;;;;;;;;;;10.80;99.90;;;;;;5160092;27;20261;-94
2022/04/22 05:46:15;;;;;;;;;;;11.10;99.90;;;;;;5159721;27;25060;-95
2022/04/22 05:48:46;;;;;;;10.20;6.73;;;11.60;99.90;;;;;;5159132;27;20119;-92
2022/04/22 05:51:26;;;;;;;10.73;5.77;;;12.40;99.90;;;;;;5158813;27;20188;-92
2022/04/22 05:54:02;;;;;;;;;;;13.60;1.00;;;;;;5138760;28;20078;-94
2022/04/22 05:56:31;;;;;;;11.18;6.30;;;14.60;1.00;;;;;;5138612;27;20361;-94
2022/04/22 05:59:02;;;;;;;7.15;5.05;;;15.50;99.90;;;;;;5138589;28;20195;-93
2022/04/22 06:01:31;;;;;;;8.80;5.55;;;16.30;99.90;;;;;;5138596;28;20206;-94
2022/04/22 06:04:02;;;;;;;8.45;5.55;;;17.00;99.90;;;;;;5138408;28;20191;-95
2022/04/22 06:06:33;;;;;;;6.55;5.03;;;17.50;1.00;;;;;;5137625;28;20184;-93
2022/04/22 06:11:51;;;;;;;6.82;4.90;;;18.30;1.00;;;;;;5138192;28;20210;-90
2022/04/22 06:14:20;;;;;;;10.77;5.57;;;18.40;1.00;;;;;;5137965;28;20264;-92
2022/04/22 06:16:52;;;;;;;8.63;5.13;;;18.90;1.00;;;;;;5137344;28;20176;-91
2022/04/22 06:19:23;;;;;;;6.50;4.85;;;19.20;1.00;;;;;;5137155;28;20217;-93
2022/04/22 06:21:51;;;;;;;8.32;5.63;;;19.70;1.00;;;;;;5137713;28;20651;-92
2022/04/22 06:24:19;;;;;;;6.75;4.93;;;19.90;1.00;;;;;;5137622;28;20183;-93
2022/04/22 06:26:46;;;;;;;7.15;5.53;;;20.20;1.00;;;;;;5144573;27;20220;-93
2022/04/22 06:29:18;;;;;;;7.47;5.10;;;20.50;1.00;;;;;;5158234;27;20206;-91
2022/04/22 06:31:48;;;;;;;8.43;5.05;;;20.50;1.00;;;;;;5158246;27;20224;-90
2022/04/22 06:34:17;;;;;;;7.22;5.40;;;20.70;1.00;;;;;;5155735;27;20194;-95
2022/04/22 06:36:48;;;;;;;9.70;4.88;;;21.00;1.00;;;;;;5157917;27;20212;-91
2022/04/22 06:39:16;;;;;;;8.02;5.50;;;21.10;1.00;;;;;;5156810;27;20258;-91
2022/04/22 06:47:16;;;;;;;9.05;4.90;;;19.40;1.00;;;;;;5158153;27;20161;-94
2022/04/22 06:49:47;;;;;;;7.20;4.57;;;17.90;1.00;;;;;;5158046;27;20258;-92
2022/04/22 06:52:18;;;;;;;8.23;5.72;;;16.90;1.00;;;;;;5157953;27;20140;-90
2022/04/22 06:54:51;;;;;;;8.75;4.88;;;16.30;1.00;;;;;;5158872;27;20162;-91
2022/04/22 06:57:20;;;;;;;9.10;5.45;;;15.90;1.00;;;;;;5157616;27;20201;-92
2022/04/22 06:59:51;;;;;;;7.65;5.30;;;15.50;1.00;;;;;;5157659;27;20199;-90
2022/04/22 07:02:19;;;;;;;9.02;5.78;;;15.30;1.00;;;;;;5143525;27;20287;-89
2022/04/22 07:04:47;;;;;;;8.45;5.18;;;15.20;1.00;;;;;;5135011;27;20190;-88
2022/04/22 07:07:15;;;;;;;8.30;5.43;;;15.20;1.00;;;;;;5135304;27;20204;-87
2022/04/22 07:09:42;;;;;;;6.25;4.35;;;15.30;1.00;;;;;;5134681;27;20238;-86
2022/04/22 07:12:11;;;;;;;10.98;5.20;;;15.40;1.00;;;;;;5134478;27;20217;-89
2022/04/22 07:14:42;;;;;;;8.52;4.95;;;15.50;1.00;;;;;;5134744;27;20190;-85
2022/04/22 07:17:10;;;;;;;7.40;4.80;;;15.70;1.00;;;;;;5134774;27;20245;-86
2022/04/22 07:19:37;;;;;;;8.38;4.90;;;16.20;1.00;;;;;;5134263;27;20230;-88
2022/04/22 07:22:07;;;;;;;6.70;4.50;;;16.80;1.00;;;;;;5134275;27;20247;-88
2022/04/22 07:24:34;;;;;;;7.25;4.20;;;17.40;1.00;;;;;;5134410;27;20230;-89
2022/04/22 07:27:02;;;;;;;9.18;4.50;;;18.00;1.00;;;;;;5134655;27;20638;-86
2022/04/22 07:29:34;;;;;;;7.53;4.60;;;18.10;1.00;;;;;;5134622;27;20218;-86
2022/04/22 07:32:01;;;;;;;7.35;4.78;;;18.00;1.00;;;;;;5134063;27;20213;-88
2022/04/22 07:34:31;;;;;;;6.30;4.50;;;17.40;1.00;;;;;;5150926;27;20747;-90
2022/04/22 07:37:02;;;;;;;5.20;3.97;;;16.80;1.00;;;;;;5157253;27;20199;-88
2022/04/22 07:39:32;;;;;;;9.90;4.63;;;16.30;1.00;;;;;;5157120;27;20111;-93
2022/04/22 07:42:02;;;;;;;7.30;4.93;;;15.90;1.00;;;;;;5157260;27;20202;-94
2022/04/22 07:47:15;;;;;;;;;;;15.10;1.00;;;;;;5158054;27;20090;-93
2022/04/22 07:49:48;;;;;;;8.13;4.90;;;14.80;1.00;;;;;;5157426;27;20212;-91
2022/04/22 07:52:25;;;;;;;6.17;4.80;;;14.40;1.00;;;;;;5156939;27;20289;-91
2022/04/22 07:54:55;;;;;;;8.60;4.37;;;14.20;1.00;;;;;;5157124;27;20192;-93
2022/04/22 07:57:25;;;;;;;8.10;4.17;;;13.90;1.00;;;;;;5157362;27;20217;-91
2022/04/22 08:00:00;;;;;;;7.70;4.50;;;13.80;1.00;;;;;;5156460;27;20163;-92
2022/04/22 08:02:30;;;;;;;6.80;4.17;;;13.90;17.10;;;;;;5156731;27;20284;-91
2022/04/22 08:04:57;;;;;;;5.33;3.73;;;13.90;49.30;;;;;;5156679;27;20242;-89
2022/04/22 08:07:26;;;;;;;5.93;3.87;;;13.90;78.40;;;;;;5156202;27;20198;-92
2022/04/22 08:09:55;;;;;;;6.70;4.63;;;14.00;46.60;;;;;;5156437;27;20201;-90
2022/04/22 08:12:24;;;;;;;7.53;4.63;;;14.10;46.40;;;;;;5156733;27;20201;-90
2022/04/22 08:14:51;;;;;;;8.93;4.37;;;14.30;29.70;;;;;;5157027;27;20223;-94
2022/04/22 08:17:27;;;;;;;6.80;4.43;;;14.30;19.20;;;;;;5156539;27;20196;-92
2022/04/22 08:19:57;;;;;;;6.03;4.33;;;14.30;25.50;;;;;;5156377;27;20225;-90
2022/04/22 08:22:25;;;;;;;6.30;4.17;;;14.30;24.00;;;;;;5156034;27;20201;-92
2022/04/22 08:24:59;;;;;;;4.87;3.53;;;14.40;70.00;;;;;;5156499;27;20205;-92
2022/04/22 08:27:28;;;;;;;8.43;5.63;;;14.60;30.40;;;;;;5134574;27;20186;-86
2022/04/22 08:29:55;;;;;;;8.47;5.27;;;14.80;1.20;;;;;;5133996;27;20288;-89
2022/04/22 08:32:22;;;;;;;6.70;4.97;;;14.90;7.10;;;;;;5133562;27;20247;-87
2022/04/22 08:34:51;;;;;;;9.93;6.20;;;14.90;6.10;;;;;;5133892;28;20201;-87
2022/04/22 08:37:18;;;;;;;8.03;5.60;;;14.90;1.00;;;;;;5134083;27;20223;-86
2022/04/22 08:39:45;;;;;;;9.13;5.70;;;14.80;1.00;;;;;;5133996;28;20187;-89
2022/04/22 08:42:15;;;;;;;9.70;6.47;;;14.70;1.00;;;;;;5133756;28;20193;-86
2022/04/22 08:44:42;;;;;;;9.40;7.10;;;14.50;7.00;;;;;;5133652;28;20177;-86
2022/04/22 08:50:02;;;;;;;14.07;9.33;;;14.20;39.70;;;;;;5133100;28;20179;-86
2022/04/22 08:52:32;;;;;;;12.00;8.30;;;14.20;55.00;;;;;;5112936;28;20214;-87
2022/04/22 08:55:00;;;;;;;9.57;6.60;;;14.10;93.00;;;;;;5120177;28;20219;-88
2022/04/22 08:57:29;;;;;;;13.83;10.63;;;14.00;99.90;;;;;;5133664;28;20665;-88
2022/04/22 09:00:01;;;;;;;15.93;10.80;;;13.90;99.90;;;;;;5133481;28;20601;-88
2022/04/22 09:02:28;;;;;;;15.47;11.63;;;13.90;99.90;;;;;;5133186;28;20219;-86
2022/04/22 09:04:56;;;;;;;14.13;9.67;;;13.80;99.90;;;;;;5133370;28;20198;-86
2022/04/22 09:07:26;;;;;;;9.90;7.20;;;13.70;99.90;;;;;;5133496;28;20660;-86
2022/04/22 09:09:54;;;;;;;12.07;9.17;;;13.60;99.90;;;;;;5133062;27;20580;-85
2022/04/22 09:12:22;;;;;;;11.93;8.83;;;13.60;99.90;;;;;;5137383;27;20230;-88
2022/04/22 09:14:52;;;;;;;13.97;8.83;;;13.60;99.90;;;;;;5137340;27;20190;-86
2022/04/22 09:17:24;;;;;;;12.00;8.97;;;13.60;99.90;;;;;;5137165;27;20255;-89
2022/04/22 09:19:53;;;;;;;12.50;8.73;;;13.70;99.90;;;;;;5136868;27;20184;-88
2022/04/22 09:22:21;;;;;;;13.33;9.30;;;13.60;99.90;;;;;;5136917;27;20553;-86
2022/04/22 09:24:50;;;;;;;10.70;8.50;;;13.70;99.90;;;;;;5137323;27;20196;-89
2022/04/22 09:27:18;;;;;;;10.93;7.37;;;13.70;99.90;;;;;;5137351;27;20192;-89
2022/04/22 09:29:54;;;;;;;11.07;7.77;;;13.70;99.90;;;;;;5136793;27;20248;-86
2022/04/22 09:32:25;;;;;;;11.33;7.43;;;13.60;99.90;;;;;;5137326;27;20179;-89
2022/04/22 09:34:53;;;;;;;13.03;7.17;;;13.70;99.90;;;;;;5137227;27;20187;-87
2022/04/22 09:43:00;;;;;;;8.90;5.90;;;13.60;99.90;;;;;;5136590;27;20191;-88
2022/04/22 09:45:39;;;;;;;9.23;6.67;;;13.50;99.90;;;;;;5136752;27;20651;-86
2022/04/22 09:48:14;;;;;;;8.67;6.20;;;13.50;99.90;;;;;;5137002;27;20192;-88
2022/04/22 09:50:43;;;;;;;9.23;6.67;;;13.40;99.90;;;;;;5136513;27;20188;-88
2022/04/22 09:53:11;;;;;;;7.97;6.20;;;13.50;99.90;;;;;;5136274;27;20817;-87
2022/04/22 09:55:55;;;;;;;7.63;5.83;;;13.50;99.90;;;;;;5136430;27;20191;-86
2022/04/22 09:58:26;;;;;;;8.77;6.47;;;13.50;99.90;;;;;;5136371;27;20184;-87
2022/04/22 10:01:03;;;;;;;10.40;7.20;;;13.50;99.90;;;;;;5136696;27;20225;-86
2022/04/22 10:03:31;;;;;;;11.10;8.10;;;13.50;99.90;;;;;;5136494;27;20230;-86
2022/04/22 10:05:59;;;;;;;12.67;8.07;;;13.50;99.90;;;;;;5136122;27;20191;-88
2022/04/22 10:08:28;;;;;;;11.17;8.30;;;13.40;99.90;;;;;;5136390;27;20206;-88
2022/04/22 10:10:58;;;;;;;12.27;8.17;;;13.40;99.90;;;;;;5136139;27;20194;-86
2022/04/22 10:13:29;;;;;;;11.37;8.60;;;13.40;99.90;;;;;;5136285;27;20225;-86
2022/04/22 10:15:58;;;;;;;14.30;9.53;;;13.40;99.90;;;;;;5136357;27;20591;-87
2022/04/22 10:18:26;;;;;;;14.40;9.00;;;13.40;99.90;;;;;;5136079;27;20690;-84
2022/04/22 10:20:54;;;;;;;15.83;10.70;;;13.50;99.90;;;;;;5135635;27;20160;-85
2022/04/22 10:23:22;;;;;;;11.10;8.80;;;13.60;99.90;;;;;;5135368;27;20190;-86
2022/04/22 10:25:49;;;;;;;21.93;10.40;;;13.50;99.90;;;;;;5135731;27;20701;-86
2022/04/22 10:28:17;;;;;;;14.07;9.77;;;13.60;99.90;;;;;;5135749;27;20224;-88
2022/04/22 10:30:45;;;;;;;16.30;10.70;;;13.60;99.90;;;;;;5135591;27;20195;-87
2022/04/22 10:33:13;;;;;;;13.53;9.67;;;13.60;99.90;;;;;;5135574;27;20269;-87
2022/04/22 10:35:42;;;;;;;15.50;10.77;;;13.60;99.90;;;;;;5136098;27;20242;-88
2022/04/22 10:38:28;;;;;;;14.93;11.20;;;13.60;99.90;;;;;;5134984;27;20732;-85
2022/04/22 10:40:55;;;;;;;13.83;11.10;;;13.60;99.90;;;;;;5135724;27;20179;-87
2022/04/22 10:43:25;;;;;;;14.87;10.80;;;13.60;99.90;;;;;;5135486;27;20195;-86
2022/04/22 10:48:41;;;;;;;13.80;11.23;;;13.50;99.90;;;;;;5135067;27;20181;-86
2022/04/22 10:51:10;;;;;;;14.53;11.63;;;13.40;99.90;;;;;;5134639;27;20211;-88
2022/04/22 10:53:47;;;;;;;12.67;11.07;;;13.40;99.90;;;;;;5135050;27;20630;-86
2022/04/22 10:56:35;;;;;;;14.03;11.13;;;13.30;99.90;;;;;;5134776;27;20186;-86
2022/04/22 10:59:32;;;;;;;14.60;11.57;;;13.40;99.90;;;;;;5134735;27;20256;-88
2022/04/22 11:02:00;;;;;;;16.07;11.27;;;13.40;99.90;;;;;;5134979;27;20180;-86
2022/04/22 11:04:31;;;;;;;14.40;11.10;;;13.50;99.90;;;;;;5134712;27;20195;-85
2022/04/22 11:07:01;;;;;;;13.53;11.17;;;13.60;99.90;;;;;;5135085;27;20188;-86
2022/04/22 11:09:31;;;;;;;17.30;11.07;;;13.70;99.90;;;;;;5135266;27;20184;-87
2022/04/22 11:11:59;;;;;;;16.30;11.93;;;13.90;99.90;;;;;;5135096;27;20543;-87
2022/04/22 11:14:28;;;;;;;17.27;12.60;;;14.10;99.90;;;;;;5134944;27;20263;-86
2022/04/22 11:16:56;;;;;;;16.77;14.43;;;14.40;99.90;;;;;;5134789;27;20201;-86
2022/04/22 11:19:27;;;;;;;19.63;14.00;;;14.60;99.90;;;;;;5134143;27;20648;-89
2022/04/22 11:21:57;;;;;;;32.23;20.30;;;14.70;95.80;;;;;;5134654;27;20202;-87
2022/04/22 11:24:27;;;;;;;28.80;21.87;;;14.60;45.30;;;;;;5134500;27;20258;-87
2022/04/22 11:27:08;;;;;;;29.37;21.13;;;14.50;73.40;;;;;;5134585;27;20193;-87
2022/04/22 11:29:35;;;;;;;34.03;23.43;;;14.50;78.90;;;;;;5134300;27;20217;-86
2022/04/22 11:32:12;;;;;;;28.37;21.03;;;14.30;58.30;;;;;;5134537;27;20193;-87
2022/04/22 11:35:19;;;;;;;31.80;22.93;;;14.30;70.00;;;;;;5133669;27;20579;-87
2022/04/22 11:37:59;;;;;;;40.03;27.43;;;14.30;90.70;;;;;;5134494;27;20200;-86
2022/04/22 11:40:26;;;;;;;37.27;21.43;;;14.30;99.90;;;;;;5134351;27;20633;-87
2022/04/22 11:42:55;;;;;;;36.87;26.50;;;14.30;96.90;;;;;;5134205;27;20598;-87
2022/04/22 11:45:22;;;;;;;30.40;22.33;;;14.20;84.50;;;;;;5134065;27;20203;-88
2022/04/22 11:47:50;;;;;;;30.90;21.87;;;14.20;67.40;;;;;;5134222;27;20261;-85
2022/04/22 11:50:21;;;;;;;34.50;24.53;;;13.90;74.90;;;;;;5133358;27;20705;-86
2022/04/22 11:52:56;;;;;;;37.30;24.70;;;13.70;99.90;;;;;;5134187;27;20197;-88
2022/04/22 11:55:23;;;;;;;32.90;23.70;;;13.70;99.90;;;;;;5134722;27;20189;-85
2022/04/22 11:57:50;;;;;;;30.43;22.37;;;13.60;99.90;;;;;;5133781;27;20325;-86
2022/04/22 12:05:57;;;;;;;25.97;19.27;;;13.80;99.90;;;;;;5124306;27;20213;-87
2022/04/22 12:08:26;;;;;;;27.07;19.93;;;13.70;99.90;;;;;;5133874;27;20242;-87
2022/04/22 12:10:53;;;;;;;24.53;18.63;;;13.70;99.90;;;;;;5133886;27;20228;-86
2022/04/22 12:13:20;;;;;;;23.73;18.03;;;13.60;99.90;;;;;;5133727;27;20228;-87
2022/04/22 12:15:48;;;;;;;24.17;15.83;;;13.50;99.90;;;;;;5134177;27;20571;-85
2022/04/22 12:18:32;;;;;;;24.00;14.67;;;13.40;99.90;;;;;;5133351;27;20196;-88
2022/04/22 12:20:59;;;;;;;20.73;14.17;;;13.40;99.90;;;;;;5133100;27;20627;-84
2022/04/22 12:23:39;;;;;;;18.83;14.23;;;13.50;99.90;;;;;;5133666;27;20195;-86
2022/04/22 12:26:07;;;;;;;19.00;15.57;;;13.50;99.90;;;;;;5133859;27;20233;-85
2022/04/22 12:28:35;;;;;;;17.60;12.23;;;13.70;99.90;;;;;;5133435;27;20281;-88
2022/04/22 12:31:03;;;;;;;19.20;12.93;;;13.70;99.90;;;;;;5133694;27;20191;-84
2022/04/22 12:33:31;;;;;;;16.30;11.53;;;13.80;99.90;;;;;;5133611;27;20228;-85
2022/04/22 12:36:07;;;;;;;13.57;10.60;;;13.90;99.90;;;;;;5133378;27;20197;-88
2022/04/22 12:38:37;;;;;;;11.97;9.37;;;14.20;99.90;;;;;;5133659;27;20200;-85
2022/04/22 12:41:17;;;;;;;12.33;9.60;;;14.50;99.90;;;;;;5133555;27;20308;-84
2022/04/22 12:43:48;;;;;;;14.07;10.40;;;14.80;17.20;;;;;;5133507;27;20637;-89
2022/04/22 12:52:12;;;;;;;16.53;12.13;;;15.10;1.00;;;;;;5137407;27;20178;-86
2022/04/22 12:54:42;;;;;;;15.57;12.67;;;15.10;1.00;;;;;;5137057;27;20218;-85
2022/04/22 12:57:13;;;;;;;15.30;12.13;;;15.10;1.00;;;;;;5136719;27;20184;-87
2022/04/22 12:59:41;;;;;;;16.00;13.43;;;14.90;1.00;;;;;;5137048;27;20291;-85
2022/04/22 13:02:09;;;;;;;17.90;13.97;;;14.80;1.00;;;;;;5136968;27;20197;-86
2022/04/22 13:04:51;;;;;;;16.83;13.87;;;14.80;1.00;;;;;;5137133;27;20277;-85
2022/04/22 13:07:18;;;;;;;16.90;13.73;;;15.00;1.00;;;;;;5137299;27;20226;-82
2022/04/22 13:09:47;;;;;;;17.83;13.37;;;15.00;1.00;;;;;;5136751;27;20567;-90
2022/04/22 13:12:14;;;;;;;16.60;13.13;;;15.10;1.00;;;;;;5137685;27;20257;-87
2022/04/22 13:14:41;;;;;;;17.13;14.47;;;15.10;1.00;;;;;;5137244;27;20266;-83
2022/04/22 13:17:18;;;;;;;17.37;14.00;;;15.00;1.00;;;;;;5139408;27;20195;-83
2022/04/22 13:19:45;;;;;;;16.07;14.27;;;14.90;1.00;;;;;;5140857;27;20201;-81
2022/04/22 13:22:12;;;;;;;16.07;14.37;;;14.70;1.00;;;;;;5141019;27;20261;-85
2022/04/22 13:24:41;;;;;;;15.50;12.80;;;14.70;1.00;;;;;;5141961;27;20191;-85
2022/04/22 13:27:11;;;;;;;15.80;14.10;;;14.80;1.00;;;;;;5153591;27;20200;-88
2022/04/22 13:32:28;;;;;;;12.17;10.23;;;14.90;1.00;;;;;;5078810;27;20193;-87
2022/04/22 13:34:55;;;;;;;12.10;10.03;;;14.90;1.00;;;;;;5138375;27;20251;-87
2022/04/22 13:37:23;;;;;;;9.53;8.53;;;14.90;1.00;;;;;;5138462;27;20205;-87
2022/04/22 13:39:50;;;;;;;8.87;7.43;;;15.10;1.00;;;;;;5141139;27;20581;-82
2022/04/22 13:42:20;;;;;;;10.73;9.10;;;15.20;1.00;;;;;;5141056;27;20556;-83
2022/04/22 13:53:01;;;;;;;8.25;7.10;;;15.90;1.00;;;;;;5129724;27;20225;-83
2022/04/22 13:55:28;;;;;;;7.70;6.65;;;15.80;1.00;;;;;;5134876;27;20220;-83
2022/04/22 13:57:58;;;;;;;5.80;5.20;;;15.60;1.00;;;;;;5134589;27;20203;-84
2022/04/22 14:00:26;;;;;;;7.50;6.70;;;15.40;1.00;;;;;;5135258;27;20216;-85
2022/04/22 14:02:53;;;;;;;6.10;5.50;;;15.20;1.00;;;;;;5139152;27;20186;-88
2022/04/22 14:05:22;;;;;;;8.07;6.47;;;15.10;1.00;;;;;;5136625;27;20624;-84
2022/04/22 14:07:50;;;;;;;7.33;6.63;;;15.20;1.00;;;;;;5136164;27;20205;-82
2022/04/22 14:10:18;;;;;;;7.10;6.40;;;15.10;1.00;;;;;;5136039;27;20189;-83
2022/04/22 14:12:46;;;;;;;9.00;6.63;;;15.10;1.00;;;;;;5135411;27;20199;-84